sensor_id;sensor_type;location;lat;lon;timestamp;temperature;humidity
14057;DHT22;7103;54.300;10.180;2023-02-07T00:01:17;0.20;1.00
14057;DHT22;7103;54.300;10.180;2023-02-07T00:03:45;0.20;1.00
14057;DHT22;7103;54.300;10.180;2023-02-07T00:06:22;0.20;1.00
14057;DHT22;7103;54.300;10.180;2023-02-07T00:08:49;0.20;1.00
14057;DHT22;7103;54.300;10.180;2023-02-07T00:11:18;0.20;1.00
14057;DHT22;7103;54.300;10.180;2023-02-07T00:13:49;0.30;1.00
14057;DHT22;7103;54.300;10.180;2023-02-07T00:16:17;0.20;1.00
14057;DHT22;7103;54.300;10.180;2023-02-07T00:18:44;0.20;1.00
14057;DHT22;7103;54.300;10.180;2023-02-07T00:21:16;0.20;1.00
14057;DHT22;7103;54.300;10.180;2023-02-07T00:23:44;0.20;1.00
14057;DHT22;7103;54.300;10.180;2023-02-07T00:26:13;0.20;1.00
14057;DHT22;7103;54.300;10.180;2023-02-07T00:28:40;0.20;1.00
14057;DHT22;7103;54.300;10.180;2023-02-07T00:31:28;0.20;1.00
14057;DHT22;7103;54.300;10.180;2023-02-07T00:33:57;0.30;1.00
14057;DHT22;7103;54.300;10.180;2023-02-07T00:36:27;0.30;1.00
14057;DHT22;7103;54.300;10.180;2023-02-07T00:38:56;0.30;1.00
14057;DHT22;7103;54.300;10.180;2023-02-07T00:41:24;0.30;1.00
14057;DHT22;7103;54.300;10.180;2023-02-07T00:43:51;0.30;1.00
14057;DHT22;7103;54.300;10.180;2023-02-07T00:46:18;0.30;1.00
14057;DHT22;7103;54.300;10.180;2023-02-07T00:48:45;0.20;1.00
14057;DHT22;7103;54.300;10.180;2023-02-07T00:51:12;0.10;1.00
14057;DHT22;7103;54.300;10.180;2023-02-07T00:53:40;0.10;1.00
14057;DHT22;7103;54.300;10.180;2023-02-07T00:56:07;0.20;1.00
14057;DHT22;7103;54.300;10.180;2023-02-07T00:58:37;0.10;1.00
14057;DHT22;7103;54.300;10.180;2023-02-07T01:01:04;0.10;1.00
14057;DHT22;7103;54.300;10.180;2023-02-07T01:03:31;0.10;1.00
14057;DHT22;7103;54.300;10.180;2023-02-07T01:05:58;0.10;1.00
14057;DHT22;7103;54.300;10.180;2023-02-07T01:08:25;0.10;1.00
14057;DHT22;7103;54.300;10.180;2023-02-07T01:10:52;0.00;1.00
14057;DHT22;7103;54.300;10.180;2023-02-07T01:13:19;0.00;1.00
14057;DHT22;7103;54.300;10.180;2023-02-07T01:15:47;0.00;1.00
14057;DHT22;7103;54.300;10.180;2023-02-07T01:18:14;0.20;1.00
14057;DHT22;7103;54.300;10.180;2023-02-07T01:20:41;0.20;1.00
14057;DHT22;7103;54.300;10.180;2023-02-07T01:23:09;0.20;1.00
14057;DHT22;7103;54.300;10.180;2023-02-07T01:25:37;0.20;1.00
14057;DHT22;7103;54.300;10.180;2023-02-07T01:28:05;0.30;1.00
14057;DHT22;7103;54.300;10.180;2023-02-07T01:30:32;0.20;1.00
14057;DHT22;7103;54.300;10.180;2023-02-07T01:32:59;0.20;1.00
14057;DHT22;7103;54.300;10.180;2023-02-07T01:35:26;0.30;1.00
14057;DHT22;7103;54.300;10.180;2023-02-07T01:37:53;0.10;1.00
14057;DHT22;7103;54.300;10.180;2023-02-07T01:40:20;0.10;1.00
14057;DHT22;7103;54.300;10.180;2023-02-07T01:42:47;0.10;1.00
14057;DHT22;7103;54.300;10.180;2023-02-07T01:47:51;0.10;1.00
14057;DHT22;7103;54.300;10.180;2023-02-07T01:50:19;0.10;1.00
14057;DHT22;7103;54.300;10.180;2023-02-07T01:52:47;0.00;1.00
14057;DHT22;7103;54.300;10.180;2023-02-07T01:55:19;0.00;1.00
14057;DHT22;7103;54.300;10.180;2023-02-07T01:57:47;0.10;1.00
14057;DHT22;7103;54.300;10.180;2023-02-07T02:00:15;0.00;1.00
14057;DHT22;7103;54.300;10.180;2023-02-07T02:02:44;0.00;1.00
14057;DHT22;7103;54.300;10.180;2023-02-07T02:05:12;-0.30;1.00
14057;DHT22;7103;54.300;10.180;2023-02-07T02:07:40;-0.10;1.00
14057;DHT22;7103;54.300;10.180;2023-02-07T02:10:16;-0.20;1.00
14057;DHT22;7103;54.300;10.180;2023-02-07T02:18:21;-0.10;1.00
14057;DHT22;7103;54.300;10.180;2023-02-07T02:23:42;-0.30;1.00
14057;DHT22;7103;54.300;10.180;2023-02-07T02:29:51;-0.40;1.00
14057;DHT22;7103;54.300;10.180;2023-02-07T02:42:26;-0.60;1.00
14057;DHT22;7103;54.300;10.180;2023-02-07T02:45:00;-0.60;1.00
14057;DHT22;7103;54.300;10.180;2023-02-07T02:47:30;-0.80;1.00
14057;DHT22;7103;54.300;10.180;2023-02-07T02:49:58;-0.80;1.00
14057;DHT22;7103;54.300;10.180;2023-02-07T02:52:26;-0.90;1.00
14057;DHT22;7103;54.300;10.180;2023-02-07T02:55:15;-0.90;1.00
14057;DHT22;7103;54.300;10.180;2023-02-07T02:58:10;-1.00;1.00
14057;DHT22;7103;54.300;10.180;2023-02-07T03:09:02;-1.20;1.00
14057;DHT22;7103;54.300;10.180;2023-02-07T03:11:38;-1.20;1.00
14057;DHT22;7103;54.300;10.180;2023-02-07T03:14:35;-1.20;1.00
14057;DHT22;7103;54.300;10.180;2023-02-07T03:19:39;-1.40;1.00
14057;DHT22;7103;54.300;10.180;2023-02-07T03:22:11;-1.40;1.00
14057;DHT22;7103;54.300;10.180;2023-02-07T03:24:45;-1.30;1.00
14057;DHT22;7103;54.300;10.180;2023-02-07T03:27:16;-1.30;1.00
14057;DHT22;7103;54.300;10.180;2023-02-07T03:29:46;-1.20;1.00
14057;DHT22;7103;54.300;10.180;2023-02-07T03:32:15;-1.10;1.00
14057;DHT22;7103;54.300;10.180;2023-02-07T03:34:51;-1.10;1.00
14057;DHT22;7103;54.300;10.180;2023-02-07T03:37:27;-1.10;1.00
14057;DHT22;7103;54.300;10.180;2023-02-07T03:39:55;-1.00;1.00
14057;DHT22;7103;54.300;10.180;2023-02-07T03:42:37;-0.90;1.00
14057;DHT22;7103;54.300;10.180;2023-02-07T03:45:10;-0.90;1.00
14057;DHT22;7103;54.300;10.180;2023-02-07T03:47:38;-0.90;1.00
14057;DHT22;7103;54.300;10.180;2023-02-07T03:50:05;-0.80;1.00
14057;DHT22;7103;54.300;10.180;2023-02-07T03:52:32;-0.90;1.00
14057;DHT22;7103;54.300;10.180;2023-02-07T03:54:59;-0.70;1.00
14057;DHT22;7103;54.300;10.180;2023-02-07T03:57:26;-0.60;1.00
14057;DHT22;7103;54.300;10.180;2023-02-07T03:59:53;-0.60;1.00
14057;DHT22;7103;54.300;10.180;2023-02-07T04:02:19;-0.60;1.00
14057;DHT22;7103;54.300;10.180;2023-02-07T04:04:46;-0.70;1.00
14057;DHT22;7103;54.300;10.180;2023-02-07T04:07:13;-0.80;1.00
14057;DHT22;7103;54.300;10.180;2023-02-07T04:09:40;-0.80;1.00
14057;DHT22;7103;54.300;10.180;2023-02-07T04:12:07;-0.90;1.00
14057;DHT22;7103;54.300;10.180;2023-02-07T04:14:34;-0.90;1.00
14057;DHT22;7103;54.300;10.180;2023-02-07T04:17:01;-1.00;1.00
14057;DHT22;7103;54.300;10.180;2023-02-07T04:19:28;-1.00;1.00
14057;DHT22;7103;54.300;10.180;2023-02-07T04:21:54;-1.10;1.00
14057;DHT22;7103;54.300;10.180;2023-02-07T04:24:21;-1.20;1.00
14057;DHT22;7103;54.300;10.180;2023-02-07T04:26:48;-1.10;1.00
14057;DHT22;7103;54.300;10.180;2023-02-07T04:29:15;-1.20;1.00
14057;DHT22;7103;54.300;10.180;2023-02-07T04:31:42;-1.30;1.00
14057;DHT22;7103;54.300;10.180;2023-02-07T04:34:09;-1.40;1.00
14057;DHT22;7103;54.300;10.180;2023-02-07T04:36:37;-1.40;1.00
14057;DHT22;7103;54.300;10.180;2023-02-07T04:39:04;-1.50;1.00
14057;DHT22;7103;54.300;10.180;2023-02-07T04:41:31;-1.50;1.00
14057;DHT22;7103;54.300;10.180;2023-02-07T04:43:58;-1.50;1.00
14057;DHT22;7103;54.300;10.180;2023-02-07T04:46:25;-1.50;1.00
14057;DHT22;7103;54.300;10.180;2023-02-07T04:48:53;-1.50;1.00
14057;DHT22;7103;54.300;10.180;2023-02-07T04:51:20;-1.60;1.00
14057;DHT22;7103;54.300;10.180;2023-02-07T04:53:47;-1.60;1.00
14057;DHT22;7103;54.300;10.180;2023-02-07T04:56:14;-1.60;1.00
14057;DHT22;7103;54.300;10.180;2023-02-07T04:58:41;-1.60;1.00
14057;DHT22;7103;54.300;10.180;2023-02-07T05:01:07;-1.60;1.00
14057;DHT22;7103;54.300;10.180;2023-02-07T05:03:34;-1.60;1.00
14057;DHT22;7103;54.300;10.180;2023-02-07T05:06:01;-1.60;1.00
14057;DHT22;7103;54.300;10.180;2023-02-07T05:08:28;-1.60;1.00
14057;DHT22;7103;54.300;10.180;2023-02-07T05:10:55;-1.60;1.00
14057;DHT22;7103;54.300;10.180;2023-02-07T05:13:22;-1.60;1.00
14057;DHT22;7103;54.300;10.180;2023-02-07T05:15:49;-1.60;1.00
14057;DHT22;7103;54.300;10.180;2023-02-07T05:18:16;-1.60;1.00
14057;DHT22;7103;54.300;10.180;2023-02-07T05:20:44;-1.50;1.00
14057;DHT22;7103;54.300;10.180;2023-02-07T05:23:11;-1.50;1.00
14057;DHT22;7103;54.300;10.180;2023-02-07T05:25:39;-1.50;1.00
14057;DHT22;7103;54.300;10.180;2023-02-07T05:28:06;-1.50;1.00
14057;DHT22;7103;54.300;10.180;2023-02-07T05:30:33;-1.50;1.00
14057;DHT22;7103;54.300;10.180;2023-02-07T05:33:00;-1.40;1.00
14057;DHT22;7103;54.300;10.180;2023-02-07T05:35:38;-1.40;1.00
14057;DHT22;7103;54.300;10.180;2023-02-07T05:38:12;-1.40;1.00
14057;DHT22;7103;54.300;10.180;2023-02-07T05:40:40;-1.50;1.00
14057;DHT22;7103;54.300;10.180;2023-02-07T05:43:09;-1.50;1.00
14057;DHT22;7103;54.300;10.180;2023-02-07T05:45:36;-1.50;1.00
14057;DHT22;7103;54.300;10.180;2023-02-07T05:48:04;-1.60;1.00
14057;DHT22;7103;54.300;10.180;2023-02-07T05:50:31;-1.70;1.00
14057;DHT22;7103;54.300;10.180;2023-02-07T05:52:58;-1.80;1.00
14057;DHT22;7103;54.300;10.180;2023-02-07T05:55:25;-1.80;1.00
14057;DHT22;7103;54.300;10.180;2023-02-07T05:57:52;-1.80;1.00
14057;DHT22;7103;54.300;10.180;2023-02-07T06:00:19;-1.80;1.00
14057;DHT22;7103;54.300;10.180;2023-02-07T06:02:46;-1.90;1.00
14057;DHT22;7103;54.300;10.180;2023-02-07T06:05:15;-1.90;1.00
14057;DHT22;7103;54.300;10.180;2023-02-07T06:07:43;-1.80;1.00
14057;DHT22;7103;54.300;10.180;2023-02-07T06:10:11;-1.80;1.00
14057;DHT22;7103;54.300;10.180;2023-02-07T06:12:38;-1.70;1.00
14057;DHT22;7103;54.300;10.180;2023-02-07T06:15:05;-1.80;1.00
14057;DHT22;7103;54.300;10.180;2023-02-07T06:17:32;-1.80;1.00
14057;DHT22;7103;54.300;10.180;2023-02-07T06:19:59;-1.80;1.00
14057;DHT22;7103;54.300;10.180;2023-02-07T06:22:26;-1.80;1.00
14057;DHT22;7103;54.300;10.180;2023-02-07T06:24:53;-1.80;1.00
14057;DHT22;7103;54.300;10.180;2023-02-07T06:27:20;-1.90;1.00
14057;DHT22;7103;54.300;10.180;2023-02-07T06:29:47;-2.00;1.00
14057;DHT22;7103;54.300;10.180;2023-02-07T06:32:13;-2.00;1.00
14057;DHT22;7103;54.300;10.180;2023-02-07T06:34:40;-2.10;1.00
14057;DHT22;7103;54.300;10.180;2023-02-07T06:37:07;-2.10;1.00
14057;DHT22;7103;54.300;10.180;2023-02-07T06:39:34;-2.10;1.00
14057;DHT22;7103;54.300;10.180;2023-02-07T06:42:01;-2.00;1.00
14057;DHT22;7103;54.300;10.180;2023-02-07T06:44:28;-1.90;1.00
14057;DHT22;7103;54.300;10.180;2023-02-07T06:46:55;-1.70;1.00
14057;DHT22;7103;54.300;10.180;2023-02-07T06:49:21;-1.70;1.00
14057;DHT22;7103;54.300;10.180;2023-02-07T06:51:48;-1.70;1.00
14057;DHT22;7103;54.300;10.180;2023-02-07T06:54:15;-1.70;1.00
14057;DHT22;7103;54.300;10.180;2023-02-07T06:56:42;-1.70;1.00
14057;DHT22;7103;54.300;10.180;2023-02-07T06:59:09;-1.70;1.00
14057;DHT22;7103;54.300;10.180;2023-02-07T07:01:36;-1.70;1.00
14057;DHT22;7103;54.300;10.180;2023-02-07T07:04:04;-1.60;1.00
14057;DHT22;7103;54.300;10.180;2023-02-07T07:06:32;-1.60;1.00
14057;DHT22;7103;54.300;10.180;2023-02-07T07:08:59;-1.60;1.00
14057;DHT22;7103;54.300;10.180;2023-02-07T07:11:25;-1.60;1.00
14057;DHT22;7103;54.300;10.180;2023-02-07T07:13:52;-1.50;1.00
14057;DHT22;7103;54.300;10.180;2023-02-07T07:16:19;-1.60;1.00
14057;DHT22;7103;54.300;10.180;2023-02-07T07:18:46;-1.60;1.00
14057;DHT22;7103;54.300;10.180;2023-02-07T07:21:13;-1.60;1.00
14057;DHT22;7103;54.300;10.180;2023-02-07T07:23:40;-1.70;1.00
14057;DHT22;7103;54.300;10.180;2023-02-07T07:26:07;-1.70;1.00
14057;DHT22;7103;54.300;10.180;2023-02-07T07:28:34;-1.70;1.00
14057;DHT22;7103;54.300;10.180;2023-02-07T07:31:04;-1.70;1.00
14057;DHT22;7103;54.300;10.180;2023-02-07T07:33:31;-1.70;1.00
14057;DHT22;7103;54.300;10.180;2023-02-07T07:35:59;-1.60;1.00
14057;DHT22;7103;54.300;10.180;2023-02-07T07:38:26;-1.50;1.00
14057;DHT22;7103;54.300;10.180;2023-02-07T07:40:53;-1.40;1.00
14057;DHT22;7103;54.300;10.180;2023-02-07T07:43:20;-1.30;1.00
14057;DHT22;7103;54.300;10.180;2023-02-07T07:45:55;-1.30;1.00
14057;DHT22;7103;54.300;10.180;2023-02-07T07:48:23;-1.30;1.00
14057;DHT22;7103;54.300;10.180;2023-02-07T07:50:51;-1.20;1.00
14057;DHT22;7103;54.300;10.180;2023-02-07T07:53:18;-1.20;1.00
14057;DHT22;7103;54.300;10.180;2023-02-07T07:55:54;-1.20;1.00
14057;DHT22;7103;54.300;10.180;2023-02-07T07:58:22;-1.10;1.00
14057;DHT22;7103;54.300;10.180;2023-02-07T08:00:49;-1.10;1.00
14057;DHT22;7103;54.300;10.180;2023-02-07T08:03:17;-1.10;1.00
14057;DHT22;7103;54.300;10.180;2023-02-07T08:05:45;-1.00;1.00
14057;DHT22;7103;54.300;10.180;2023-02-07T08:08:13;-1.00;1.00
14057;DHT22;7103;54.300;10.180;2023-02-07T08:10:40;-0.90;1.00
14057;DHT22;7103;54.300;10.180;2023-02-07T08:13:08;-0.90;1.00
14057;DHT22;7103;54.300;10.180;2023-02-07T08:15:34;-0.80;1.00
14057;DHT22;7103;54.300;10.180;2023-02-07T08:18:02;-0.70;1.00
14057;DHT22;7103;54.300;10.180;2023-02-07T08:20:29;-0.70;1.00
14057;DHT22;7103;54.300;10.180;2023-02-07T08:22:56;-0.80;1.00
14057;DHT22;7103;54.300;10.180;2023-02-07T08:25:24;-0.80;1.00
14057;DHT22;7103;54.300;10.180;2023-02-07T08:27:52;-0.80;1.00
14057;DHT22;7103;54.300;10.180;2023-02-07T08:30:20;-0.60;1.00
14057;DHT22;7103;54.300;10.180;2023-02-07T08:32:47;-0.60;1.00
14057;DHT22;7103;54.300;10.180;2023-02-07T08:35:14;-0.50;1.00
14057;DHT22;7103;54.300;10.180;2023-02-07T08:37:41;-0.50;1.00
14057;DHT22;7103;54.300;10.180;2023-02-07T08:40:08;-0.40;1.00
14057;DHT22;7103;54.300;10.180;2023-02-07T08:42:35;-0.30;1.00
14057;DHT22;7103;54.300;10.180;2023-02-07T08:45:02;-0.30;1.00
14057;DHT22;7103;54.300;10.180;2023-02-07T08:47:31;-0.30;1.00
14057;DHT22;7103;54.300;10.180;2023-02-07T08:49:58;-0.20;1.00
14057;DHT22;7103;54.300;10.180;2023-02-07T08:52:25;-0.20;1.00
14057;DHT22;7103;54.300;10.180;2023-02-07T08:54:55;-0.20;1.00
14057;DHT22;7103;54.300;10.180;2023-02-07T08:57:22;-0.20;1.00
14057;DHT22;7103;54.300;10.180;2023-02-07T08:59:51;0.00;1.00
14057;DHT22;7103;54.300;10.180;2023-02-07T09:02:19;0.00;1.00
14057;DHT22;7103;54.300;10.180;2023-02-07T09:04:46;0.00;1.00
14057;DHT22;7103;54.300;10.180;2023-02-07T09:07:13;0.00;1.00
14057;DHT22;7103;54.300;10.180;2023-02-07T09:09:40;0.10;1.00
14057;DHT22;7103;54.300;10.180;2023-02-07T09:12:08;0.10;1.00
14057;DHT22;7103;54.300;10.180;2023-02-07T09:14:36;0.10;1.00
14057;DHT22;7103;54.300;10.180;2023-02-07T09:17:04;0.20;1.00
14057;DHT22;7103;54.300;10.180;2023-02-07T09:19:32;0.40;1.00
14057;DHT22;7103;54.300;10.180;2023-02-07T09:22:00;0.30;1.00
14057;DHT22;7103;54.300;10.180;2023-02-07T09:24:27;0.30;1.00
14057;DHT22;7103;54.300;10.180;2023-02-07T09:26:54;0.40;1.00
14057;DHT22;7103;54.300;10.180;2023-02-07T09:29:21;0.50;1.00
14057;DHT22;7103;54.300;10.180;2023-02-07T09:31:48;0.80;1.00
14057;DHT22;7103;54.300;10.180;2023-02-07T09:34:15;2.00;1.00
14057;DHT22;7103;54.300;10.180;2023-02-07T09:36:42;3.20;1.00
14057;DHT22;7103;54.300;10.180;2023-02-07T09:39:10;4.30;1.00
14057;DHT22;7103;54.300;10.180;2023-02-07T09:45:00;5.70;99.90
14057;DHT22;7103;54.300;10.180;2023-02-07T09:47:30;5.90;99.90
14057;DHT22;7103;54.300;10.180;2023-02-07T09:52:48;5.40;99.90
14057;DHT22;7103;54.300;10.180;2023-02-07T09:55:29;5.70;99.90
14057;DHT22;7103;54.300;10.180;2023-02-07T09:58:12;5.70;99.90
14057;DHT22;7103;54.300;10.180;2023-02-07T10:00:40;6.20;99.90
14057;DHT22;7103;54.300;10.180;2023-02-07T10:03:21;6.50;89.00
14057;DHT22;7103;54.300;10.180;2023-02-07T10:06:03;6.50;47.30
14057;DHT22;7103;54.300;10.180;2023-02-07T10:08:50;6.70;19.70
14057;DHT22;7103;54.300;10.180;2023-02-07T10:20:12;7.40;1.00
14057;DHT22;7103;54.300;10.180;2023-02-07T10:23:05;7.20;1.00
14057;DHT22;7103;54.300;10.180;2023-02-07T10:31:13;6.80;1.00
14057;DHT22;7103;54.300;10.180;2023-02-07T10:34:08;6.70;1.00
14057;DHT22;7103;54.300;10.180;2023-02-07T10:36:42;6.60;1.00
14057;DHT22;7103;54.300;10.180;2023-02-07T10:39:38;6.30;1.00
14057;DHT22;7103;54.300;10.180;2023-02-07T10:42:13;6.10;1.00
14057;DHT22;7103;54.300;10.180;2023-02-07T10:44:41;6.20;1.00
14057;DHT22;7103;54.300;10.180;2023-02-07T10:47:16;6.20;1.00
14057;DHT22;7103;54.300;10.180;2023-02-07T10:49:48;6.10;1.00
14057;DHT22;7103;54.300;10.180;2023-02-07T10:52:31;5.90;1.00
14057;DHT22;7103;54.300;10.180;2023-02-07T10:55:02;5.90;1.00
14057;DHT22;7103;54.300;10.180;2023-02-07T10:57:30;5.90;1.00
14057;DHT22;7103;54.300;10.180;2023-02-07T11:00:22;5.70;1.00
14057;DHT22;7103;54.300;10.180;2023-02-07T11:02:54;5.70;1.00
14057;DHT22;7103;54.300;10.180;2023-02-07T11:08:05;5.70;1.00
14057;DHT22;7103;54.300;10.180;2023-02-07T11:10:37;5.70;1.00
14057;DHT22;7103;54.300;10.180;2023-02-07T11:13:12;5.60;1.00
14057;DHT22;7103;54.300;10.180;2023-02-07T11:18:43;5.60;1.00
14057;DHT22;7103;54.300;10.180;2023-02-07T11:21:34;5.40;1.00
14057;DHT22;7103;54.300;10.180;2023-02-07T11:24:26;5.40;1.00
14057;DHT22;7103;54.300;10.180;2023-02-07T11:26:55;5.50;1.00
14057;DHT22;7103;54.300;10.180;2023-02-07T11:29:24;5.50;1.00
14057;DHT22;7103;54.300;10.180;2023-02-07T11:31:53;5.60;1.00
14057;DHT22;7103;54.300;10.180;2023-02-07T11:34:50;5.60;1.00
14057;DHT22;7103;54.300;10.180;2023-02-07T11:37:27;5.40;1.00
14057;DHT22;7103;54.300;10.180;2023-02-07T11:40:16;5.50;1.00
14057;DHT22;7103;54.300;10.180;2023-02-07T11:45:35;5.40;1.00
14057;DHT22;7103;54.300;10.180;2023-02-07T11:48:04;5.50;1.00
14057;DHT22;7103;54.300;10.180;2023-02-07T11:50:36;5.40;1.00
14057;DHT22;7103;54.300;10.180;2023-02-07T11:53:27;5.40;1.00
14057;DHT22;7103;54.300;10.180;2023-02-07T11:55:55;5.40;1.00
14057;DHT22;7103;54.300;10.180;2023-02-07T11:58:33;5.40;1.00
14057;DHT22;7103;54.300;10.180;2023-02-07T12:01:05;5.40;1.00
14057;DHT22;7103;54.300;10.180;2023-02-07T12:03:53;5.40;1.00
14057;DHT22;7103;54.300;10.180;2023-02-07T12:06:42;5.50;1.00
14057;DHT22;7103;54.300;10.180;2023-02-07T12:09:50;5.30;1.00
14057;DHT22;7103;54.300;10.180;2023-02-07T12:17:55;5.30;1.00
14057;DHT22;7103;54.300;10.180;2023-02-07T12:20:30;5.20;1.00
14057;DHT22;7103;54.300;10.180;2023-02-07T12:26:00;5.00;1.00
14057;DHT22;7103;54.300;10.180;2023-02-07T12:28:49;5.00;1.00
14057;DHT22;7103;54.300;10.180;2023-02-07T12:31:28;5.00;1.00
14057;DHT22;7103;54.300;10.180;2023-02-07T12:34:25;5.10;1.00
14057;DHT22;7103;54.300;10.180;2023-02-07T12:37:04;5.10;1.00
14057;DHT22;7103;54.300;10.180;2023-02-07T12:40:21;5.10;1.00
14057;DHT22;7103;54.300;10.180;2023-02-07T12:43:08;5.10;1.00
14057;DHT22;7103;54.300;10.180;2023-02-07T12:53:52;5.20;1.00
14057;DHT22;7103;54.300;10.180;2023-02-07T12:59:40;5.00;1.00
14057;DHT22;7103;54.300;10.180;2023-02-07T13:05:20;4.90;1.00
14057;DHT22;7103;54.300;10.180;2023-02-07T13:07:59;4.90;1.00
14057;DHT22;7103;54.300;10.180;2023-02-07T13:10:41;5.00;1.00
14057;DHT22;7103;54.300;10.180;2023-02-07T13:13:34;5.00;1.00
14057;DHT22;7103;54.300;10.180;2023-02-07T13:18:57;4.90;1.00
14057;DHT22;7103;54.300;10.180;2023-02-07T13:21:29;5.00;1.00
14057;DHT22;7103;54.300;10.180;2023-02-07T13:24:02;4.90;1.00
14057;DHT22;7103;54.300;10.180;2023-02-07T13:26:33;4.80;1.00
14057;DHT22;7103;54.300;10.180;2023-02-07T13:29:05;4.80;1.00
14057;DHT22;7103;54.300;10.180;2023-02-07T13:31:37;4.70;1.00
14057;DHT22;7103;54.300;10.180;2023-02-07T13:34:13;4.70;1.00
14057;DHT22;7103;54.300;10.180;2023-02-07T13:36:51;4.80;1.00
14057;DHT22;7103;54.300;10.180;2023-02-07T13:45:03;4.70;1.00
14057;DHT22;7103;54.300;10.180;2023-02-07T13:50:43;4.70;1.00
14057;DHT22;7103;54.300;10.180;2023-02-07T13:53:33;4.80;1.00
14057;DHT22;7103;54.300;10.180;2023-02-07T13:56:09;4.70;1.00
14057;DHT22;7103;54.300;10.180;2023-02-07T13:58:56;4.80;1.00
14057;DHT22;7103;54.300;10.180;2023-02-07T14:01:53;4.90;1.00
14057;DHT22;7103;54.300;10.180;2023-02-07T14:04:23;4.80;1.00
14057;DHT22;7103;54.300;10.180;2023-02-07T14:07:03;4.80;1.00
14057;DHT22;7103;54.300;10.180;2023-02-07T14:09:44;4.70;1.00
14057;DHT22;7103;54.300;10.180;2023-02-07T14:12:24;4.60;1.00
14057;DHT22;7103;54.300;10.180;2023-02-07T14:14:52;4.60;1.00
14057;DHT22;7103;54.300;10.180;2023-02-07T14:19:57;4.50;1.00
14057;DHT22;7103;54.300;10.180;2023-02-07T14:27:42;4.50;1.00
14057;DHT22;7103;54.300;10.180;2023-02-07T14:30:35;4.40;1.00
14057;DHT22;7103;54.300;10.180;2023-02-07T14:38:27;4.40;1.00
14057;DHT22;7103;54.300;10.180;2023-02-07T14:41:01;4.50;1.00
14057;DHT22;7103;54.300;10.180;2023-02-07T14:43:51;4.40;1.00
14057;DHT22;7103;54.300;10.180;2023-02-07T14:46:49;4.30;1.00
14057;DHT22;7103;54.300;10.180;2023-02-07T14:49:25;4.20;1.00
14057;DHT22;7103;54.300;10.180;2023-02-07T14:52:06;4.20;1.00
14057;DHT22;7103;54.300;10.180;2023-02-07T14:54:51;4.20;1.00
14057;DHT22;7103;54.300;10.180;2023-02-07T14:57:40;4.10;1.00
14057;DHT22;7103;54.300;10.180;2023-02-07T15:08:14;3.90;1.00
14057;DHT22;7103;54.300;10.180;2023-02-07T15:11:01;3.80;1.00
14057;DHT22;7103;54.300;10.180;2023-02-07T15:13:34;3.80;1.00
14057;DHT22;7103;54.300;10.180;2023-02-07T15:16:17;3.80;1.00
14057;DHT22;7103;54.300;10.180;2023-02-07T15:18:54;3.80;1.00
14057;DHT22;7103;54.300;10.180;2023-02-07T15:21:33;3.90;1.00
14057;DHT22;7103;54.300;10.180;2023-02-07T15:24:06;3.90;1.00
14057;DHT22;7103;54.300;10.180;2023-02-07T15:26:34;3.80;1.00
14057;DHT22;7103;54.300;10.180;2023-02-07T15:29:04;3.80;1.00
14057;DHT22;7103;54.300;10.180;2023-02-07T15:31:41;3.70;1.00
14057;DHT22;7103;54.300;10.180;2023-02-07T15:34:14;3.70;1.00
14057;DHT22;7103;54.300;10.180;2023-02-07T15:36:43;3.60;1.00
14057;DHT22;7103;54.300;10.180;2023-02-07T15:39:23;3.60;1.00
14057;DHT22;7103;54.300;10.180;2023-02-07T15:41:52;3.50;1.00
14057;DHT22;7103;54.300;10.180;2023-02-07T15:44:24;3.40;1.00
14057;DHT22;7103;54.300;10.180;2023-02-07T15:47:01;3.40;1.00
14057;DHT22;7103;54.300;10.180;2023-02-07T15:49:34;3.30;1.00
14057;DHT22;7103;54.300;10.180;2023-02-07T15:52:19;3.20;1.00
14057;DHT22;7103;54.300;10.180;2023-02-07T15:54:50;3.10;1.00
14057;DHT22;7103;54.300;10.180;2023-02-07T15:57:23;3.10;1.00
14057;DHT22;7103;54.300;10.180;2023-02-07T15:59:52;3.00;1.00
14057;DHT22;7103;54.300;10.180;2023-02-07T16:02:33;3.00;1.00
14057;DHT22;7103;54.300;10.180;2023-02-07T16:05:10;2.80;1.00
14057;DHT22;7103;54.300;10.180;2023-02-07T16:07:38;2.70;1.00
14057;DHT22;7103;54.300;10.180;2023-02-07T16:10:35;2.50;1.00
14057;DHT22;7103;54.300;10.180;2023-02-07T16:16:08;2.50;1.00
14057;DHT22;7103;54.300;10.180;2023-02-07T16:18:38;2.40;1.00
14057;DHT22;7103;54.300;10.180;2023-02-07T16:21:11;2.30;1.00
14057;DHT22;7103;54.300;10.180;2023-02-07T16:23:39;2.20;1.00
14057;DHT22;7103;54.300;10.180;2023-02-07T16:26:07;2.10;1.00
14057;DHT22;7103;54.300;10.180;2023-02-07T16:28:34;2.10;1.00
14057;DHT22;7103;54.300;10.180;2023-02-07T16:31:01;2.00;1.00
14057;DHT22;7103;54.300;10.180;2023-02-07T16:33:28;1.90;1.00
14057;DHT22;7103;54.300;10.180;2023-02-07T16:35:55;1.90;1.00
14057;DHT22;7103;54.300;10.180;2023-02-07T16:38:21;1.80;1.00
14057;DHT22;7103;54.300;10.180;2023-02-07T16:40:48;1.90;1.00
14057;DHT22;7103;54.300;10.180;2023-02-07T16:43:41;1.90;1.00
14057;DHT22;7103;54.300;10.180;2023-02-07T16:46:08;1.90;1.00
14057;DHT22;7103;54.300;10.180;2023-02-07T16:48:35;1.90;1.00
14057;DHT22;7103;54.300;10.180;2023-02-07T16:51:02;1.90;1.00
14057;DHT22;7103;54.300;10.180;2023-02-07T16:53:29;1.80;1.00
14057;DHT22;7103;54.300;10.180;2023-02-07T16:55:57;1.70;1.00
14057;DHT22;7103;54.300;10.180;2023-02-07T16:58:27;1.80;1.00
14057;DHT22;7103;54.300;10.180;2023-02-07T17:00:55;1.80;1.00
14057;DHT22;7103;54.300;10.180;2023-02-07T17:03:22;1.70;1.00
14057;DHT22;7103;54.300;10.180;2023-02-07T17:05:49;1.60;1.00
14057;DHT22;7103;54.300;10.180;2023-02-07T17:08:19;1.60;1.00
14057;DHT22;7103;54.300;10.180;2023-02-07T17:10:58;1.50;1.00
14057;DHT22;7103;54.300;10.180;2023-02-07T17:13:25;1.50;1.00
14057;DHT22;7103;54.300;10.180;2023-02-07T17:15:53;1.50;1.00
14057;DHT22;7103;54.300;10.180;2023-02-07T17:18:20;1.50;1.00
14057;DHT22;7103;54.300;10.180;2023-02-07T17:20:47;1.40;1.00
14057;DHT22;7103;54.300;10.180;2023-02-07T17:23:14;1.40;1.00
14057;DHT22;7103;54.300;10.180;2023-02-07T17:25:41;1.50;1.00
14057;DHT22;7103;54.300;10.180;2023-02-07T17:28:12;1.50;1.00
14057;DHT22;7103;54.300;10.180;2023-02-07T17:30:41;1.50;1.00
14057;DHT22;7103;54.300;10.180;2023-02-07T17:33:09;1.40;1.00
14057;DHT22;7103;54.300;10.180;2023-02-07T17:35:37;1.40;1.00
14057;DHT22;7103;54.300;10.180;2023-02-07T17:38:04;1.30;1.00
14057;DHT22;7103;54.300;10.180;2023-02-07T17:40:34;1.30;1.00
14057;DHT22;7103;54.300;10.180;2023-02-07T17:43:02;1.20;1.00
14057;DHT22;7103;54.300;10.180;2023-02-07T17:45:31;1.20;1.00
14057;DHT22;7103;54.300;10.180;2023-02-07T17:47:58;1.20;1.00
14057;DHT22;7103;54.300;10.180;2023-02-07T17:52:56;1.40;1.00
14057;DHT22;7103;54.300;10.180;2023-02-07T17:55:23;1.40;1.00
14057;DHT22;7103;54.300;10.180;2023-02-07T17:57:50;1.40;1.00
14057;DHT22;7103;54.300;10.180;2023-02-07T18:00:27;1.30;1.00
14057;DHT22;7103;54.300;10.180;2023-02-07T18:02:54;1.20;1.00
14057;DHT22;7103;54.300;10.180;2023-02-07T18:05:21;1.10;1.00
14057;DHT22;7103;54.300;10.180;2023-02-07T18:07:49;1.10;1.00
14057;DHT22;7103;54.300;10.180;2023-02-07T18:10:20;1.10;1.00
14057;DHT22;7103;54.300;10.180;2023-02-07T18:12:47;1.10;1.00
14057;DHT22;7103;54.300;10.180;2023-02-07T18:15:15;1.10;1.00
14057;DHT22;7103;54.300;10.180;2023-02-07T18:17:44;1.10;1.00
14057;DHT22;7103;54.300;10.180;2023-02-07T18:20:18;1.10;1.00
14057;DHT22;7103;54.300;10.180;2023-02-07T18:22:45;1.10;1.00
14057;DHT22;7103;54.300;10.180;2023-02-07T18:25:13;1.10;1.00
14057;DHT22;7103;54.300;10.180;2023-02-07T18:27:40;1.10;1.00